EBBEEBFN

Guest
Details From EBBE - Beauvechain
To EBFN - Koksijde
Flight Number -
Tags Routegen Generated
Created
Modified
Stats Distance 86 nm / 159 km
Max Altitude 200 ft / 61 m
Waypoints 9
Social Downloads 1
Likes 0
Share VATSIM

Download

Looking for another format? Having issues loading an existing format? Contact us
Advertisement - Login to hide

Notes

Departing runway 21 EBBE. Arriving runway 10 EBFN.

Route

EBBE +50.69_+004.68 +50.66_+004.60 +50.65_+004.51 +50.66_+004.42 +50.69_+004.34 +50.85_+003.67 +51.06_+002.78 EBFN

ID Type Via Altitude Latitude Longitude Leg Dist Tot Dist Heading (true) Name
O EBBE APT - 0 ft / 0 m 50.74716˚ 4.75317˚ - 0 nm - -
+50.69_+004.68 LATLON - 200 ft / 61 m 50.69118˚ 4.68074˚ 4 nm 4 nm 219° / 219° -
+50.66_+004.60 LATLON - 200 ft / 61 m 50.66164˚ 4.60217˚ 3 nm 7 nm 239° / 239° -
+50.65_+004.51 LATLON - 200 ft / 61 m 50.65091˚ 4.51244˚ 3 nm 11 nm 259° / 259° -
+50.66_+004.42 LATLON - 200 ft / 61 m 50.66028˚ 4.42232˚ 3 nm 14 nm 279° / 279° -
+50.69_+004.34 LATLON - 200 ft / 61 m 50.68863˚ 4.34267˚ 3 nm 18 nm 299° / 299° -
+50.85_+003.67 LATLON - 200 ft / 61 m 50.85159˚ 3.67120˚ 27 nm 45 nm 291° / 291° -
+51.06_+002.78 LATLON - 200 ft / 61 m 51.06366˚ 2.78037˚ 36 nm 81 nm 291° / 290° -
O EBFN APT - 0 ft / 0 m 51.08649˚ 2.67107˚ 4 nm 85 nm 288° / 288° -

Altitude Profile

Advertisement - Login to hide

EBBE

Details ICAO EBBE
Name Beauvechain
Region Belgium
Timezone Europe/Brussels (UTC+1.0)
Stats Elevation 341 ft / 104 m (AMSL)
Location 50.756950° 4.769359°
Runways 2
Magnetic Variation 1.216° E

METAR

EBBE 132025Z AUTO 25013KT 9999 FEW009/// SCT065/// BKN100/// 07/04 Q0990 BLU

Decode

TAF

Not found

Departure Runways

ID Width Length Bearing (true) Bearing (mag) Surface Threshold Offset Overrun Length
04L 148 ft / 45 m 9,154 ft / 2,790 m 38.81° 37.59° Asphalt 213 ft / 65 m 965 ft / 294 m
04R 75 ft / 23 m 7,599 ft / 2,316 m 38.85° 37.63° Asphalt 0 ft / 0 m 0 ft / 0 m
22L 75 ft / 23 m 7,599 ft / 2,316 m 218.86° 217.64° Asphalt 0 ft / 0 m 0 ft / 0 m
22R 148 ft / 45 m 9,154 ft / 2,790 m 218.83° 217.61° Asphalt 1,145 ft / 349 m 0 ft / 0 m

EBFN

Details ICAO EBFN
Name KOKSIJDE
Region Belgium
Timezone Europe/Brussels (UTC+1.0)
Stats Elevation 20 ft / 6 m (AMSL)
Location 51.090220° 2.652930°
Runways 1
Magnetic Variation 0.524° E

METAR

EBFN 132025Z AUTO 28019KT 9999 FEW028/// 06/01 Q0991 BLU

Decode

TAF

Not found

Destination Runways

ID Width Length Bearing (true) Bearing (mag) Surface Threshold Offset Overrun Length
11 115 ft / 35 m 8,754 ft / 2,668 m 108.24° 107.72° Asphalt 312 ft / 95 m 3 ft / 1 m
29 115 ft / 35 m 8,754 ft / 2,668 m 288.26° 287.74° Asphalt 325 ft / 99 m 0 ft / 0 m

Popular Alternatives